Terminal Aerodrome Forecast
Issued by NWS

Home | Current Version | Previous Version | Text Only | Print | Product List | Glossary On
Versions: 1 2 3 4 5 6 7 8 9 10 11 12 13 14 15 16 17 18 19 20
000
FTUS44 KLIX 030800 AAB
TAFGPT
TAF AMD
KGPT 030857Z 0309/0406 14004KT 1/4SM FG OVC002
     FM031500 15008KT P6SM BKN008
     FM032000 16010KT P6SM BKN015
     FM040000 15010KT 1/2SM FG BKN010=

USA.gov is the U.S. government's official web portal to all federal, state and local government web resources and services.